Time;durP1;ratioP1;P1;durP2;ratioP2;P2;SDS_P1;SDS_P2;PMS_P1;PMS_P2;Temp;Humidity;BMP_temperature;BMP_pressure;BME280_temperature;BME280_humidity;BME280_pressure;Samples;Min_cycle;Max_cycle;Signal;HPM_P1;HPM_P2
2023/07/03 00:00:12;;;;;;;10.68;3.97;;;;;;;17.34;65.92;100791.00;20676317;28;20057;-60
2023/07/03 00:10:33;;;;;;;12.27;4.30;;;;;;;17.34;65.77;100782.34;20694294;28;21819;-61
2023/07/03 00:20:56;;;;;;;11.30;3.95;;;;;;;17.39;65.37;100782.91;20685810;28;20050;-60
2023/07/03 00:31:18;;;;;;;13.27;4.05;;;;;;;17.38;65.94;100786.47;20647168;28;20038;-61
2023/07/03 00:41:39;;;;;;;13.10;4.35;;;;;;;17.33;66.32;100778.00;20677476;28;20119;-61
2023/07/03 00:52:02;;;;;;;12.95;4.10;;;;;;;17.29;66.34;100779.16;20671114;28;20064;-61
2023/07/03 01:02:50;;;;;;;14.63;4.32;;;;;;;17.22;66.67;100765.56;20672690;28;20554;-61
2023/07/03 01:13:17;;;;;;;12.00;4.50;;;;;;;17.09;67.10;100759.34;20665661;28;20053;-61
2023/07/03 01:23:47;;;;;;;10.35;4.25;;;;;;;17.03;67.77;100764.97;20665631;28;20050;-61
2023/07/03 01:34:09;;;;;;;15.75;4.80;;;;;;;16.96;67.87;100754.00;20662318;28;20058;-61
2023/07/03 01:44:31;;;;;;;16.70;4.30;;;;;;;16.85;68.49;100755.53;20663448;28;20045;-61
2023/07/03 01:55:16;;;;;;;11.73;4.30;;;;;;;16.75;68.74;100731.72;20660103;28;20050;-61
2023/07/03 02:05:39;;;;;;;12.00;4.32;;;;;;;16.72;69.21;100726.66;20654305;28;20056;-62
2023/07/03 02:16:01;;;;;;;16.85;5.35;;;;;;;16.65;69.75;100720.09;20660048;28;20538;-61
2023/07/03 02:26:22;;;;;;;16.75;5.40;;;;;;;16.64;70.62;100725.41;20663920;28;20511;-61
2023/07/03 02:36:46;;;;;;;17.60;4.93;;;;;;;16.60;70.90;100724.75;20655760;28;20049;-61
2023/07/03 02:47:07;;;;;;;16.65;5.13;;;;;;;16.64;71.52;100713.19;20640248;28;20076;-61
2023/07/03 02:57:29;;;;;;;17.48;5.32;;;;;;;16.66;72.00;100711.34;20654771;28;20796;-61
2023/07/03 03:07:51;;;;;;;14.07;4.70;;;;;;;16.72;72.04;100708.34;20653333;28;20571;-61
2023/07/03 03:18:12;;;;;;;13.32;4.25;;;;;;;16.74;71.79;100684.75;20665075;28;20453;-61
2023/07/03 03:28:34;;;;;;;15.15;4.40;;;;;;;16.81;72.11;100686.91;20671477;28;20045;-60
2023/07/03 03:38:55;;;;;;;19.98;5.00;;;;;;;16.84;72.84;100697.22;20669156;28;20042;-61
2023/07/03 03:49:17;;;;;;;19.90;4.22;;;;;;;16.89;73.37;100696.94;20666532;28;20056;-61
2023/07/03 03:59:39;;;;;;;;;;;;;;;16.91;75.73;100698.53;20673322;28;20061;-61
2023/07/03 04:10:02;;;;;;;;;;;;;;;16.91;75.76;100690.69;20675726;28;19921;-61
2023/07/03 04:20:25;;;;;;;19.75;4.75;;;;;;;17.01;75.08;100694.44;20665351;28;19925;-61
2023/07/03 04:30:47;;;;;;;16.15;4.55;;;;;;;17.09;74.83;100692.22;20684775;28;20049;-61
2023/07/03 04:41:09;;;;;;;18.20;4.22;;;;;;;17.17;75.22;100704.00;20665921;28;20419;-61
2023/07/03 04:51:32;;;;;;;18.20;4.10;;;;;;;17.18;76.69;100710.94;20685246;28;20046;-61
2023/07/03 05:01:53;;;;;;;19.08;4.35;;;;;;;17.22;75.15;100715.88;20676996;28;20589;-61
2023/07/03 05:12:15;;;;;;;17.77;4.40;;;;;;;17.12;76.30;100732.19;20669028;28;20110;-61
2023/07/03 05:22:38;;;;;;;18.08;3.80;;;;;;;16.99;75.74;100739.94;20658058;28;20499;-61
2023/07/03 05:33:00;;;;;;;14.35;3.40;;;;;;;16.93;76.99;100741.13;20666336;28;20046;-61
2023/07/03 05:43:22;;;;;;;15.55;3.65;;;;;;;16.98;76.25;100749.53;20671813;28;20992;-61
2023/07/03 05:53:44;;;;;;;12.65;3.97;;;;;;;17.07;75.88;100742.91;20671445;28;20042;-61
2023/07/03 06:04:05;;;;;;;19.60;3.80;;;;;;;17.20;76.43;100753.50;20668909;28;20118;-61
2023/07/03 06:14:29;;;;;;;14.88;3.75;;;;;;;17.35;75.19;100765.69;20654634;28;20180;-61
2023/07/03 06:24:51;;;;;;;14.68;3.22;;;;;;;17.51;73.71;100775.19;20654398;28;20850;-61
2023/07/03 06:35:14;;;;;;;15.25;3.80;;;;;;;17.71;72.82;100774.84;20700476;23;20049;-61
2023/07/03 06:45:37;;;;;;;11.00;2.58;;;;;;;17.78;71.83;100776.16;20755678;28;20048;-60
2023/07/03 06:56:00;;;;;;;18.42;3.05;;;;;;;17.97;70.68;100796.81;20740841;28;20049;-61
2023/07/03 07:06:26;;;;;;;13.80;2.08;;;;;;;18.25;69.22;100778.47;20758458;28;20048;-61
2023/07/03 07:16:48;;;;;;;;;;;;;;;18.36;68.76;100778.66;20745889;28;20076;-60
2023/07/03 07:27:09;;;;;;;;;;;;;;;18.22;68.84;100786.50;20746507;28;19944;-61
2023/07/03 07:37:31;;;;;;;;;;;;;;;18.12;68.29;100790.66;20744651;28;19933;-61
2023/07/03 07:47:52;;;;;;;;;;;;;;;18.25;67.98;100796.81;20737875;28;20195;-61
2023/07/03 07:58:14;;;;;;;;;;;;;;;18.46;67.79;100790.25;20769666;28;20409;-59
2023/07/03 08:08:36;;;;;;;;;;;;;;;18.68;66.26;100795.81;20755103;28;19936;-59
2023/07/03 08:18:58;;;;;;;;;;;;;;;18.85;66.50;100786.88;20760983;28;19929;-59
2023/07/03 08:29:19;;;;;;;;;;;;;;;18.63;66.24;100828.50;20759686;28;19929;-59
2023/07/03 08:39:41;;;;;;;;;;;;;;;17.82;72.04;100829.16;20760137;28;19921;-60
2023/07/03 08:50:03;;;;;;;;;;;;;;;17.42;72.33;100872.50;20763393;28;19921;-58
2023/07/03 09:00:28;;;;;;;;;;;;;;;16.85;75.59;100863.56;20764386;28;20938;-58
2023/07/03 09:10:50;;;;;;;4.97;1.65;;;;;;;17.04;75.57;100855.53;20765265;28;19932;-59
2023/07/03 09:21:12;;;;;;;9.15;1.88;;;;;;;17.44;74.66;100841.88;20763166;28;20144;-58
2023/07/03 09:31:34;;;;;;;16.23;2.03;;;;;;;18.16;73.55;100833.22;20770141;28;20419;-59
2023/07/03 09:42:05;;;;;;;9.60;1.50;;;;;;;18.41;73.46;100834.25;20759850;28;20132;-58
2023/07/03 09:52:27;;;;;;;12.73;2.65;;;;;;;17.58;78.09;100924.88;20757496;28;20833;-58
2023/07/03 10:02:56;;;;;;;12.10;2.20;;;;;;;16.62;84.55;100931.94;20767358;28;20041;-58
2023/07/03 10:13:30;;;;;;;6.93;1.80;;;;;;;16.42;83.42;100916.44;20758787;28;20042;-58
2023/07/03 10:23:52;;;;;;;5.63;1.40;;;;;;;16.53;81.41;100910.66;20753670;28;20041;-59
2023/07/03 10:34:23;;;;;;;5.25;1.60;;;;;;;16.90;78.90;100921.66;20754616;28;20093;-59
2023/07/03 10:44:46;;;;;;;6.63;1.70;;;;;;;17.14;77.05;100916.84;20780392;28;20700;-58
2023/07/03 10:55:22;;;;;;;4.40;1.38;;;;;;;17.28;76.04;100929.16;20757172;28;20038;-59
2023/07/03 11:05:51;;;;;;;3.92;1.30;;;;;;;17.39;77.11;100925.03;20769767;28;20045;-58
2023/07/03 11:16:15;;;;;;;4.10;1.20;;;;;;;17.65;73.56;100927.00;20760252;28;20599;-59
2023/07/03 11:26:48;;;;;;;4.35;0.93;;;;;;;17.80;72.71;100922.69;20785767;28;20049;-58
2023/07/03 11:37:39;;;;;;;4.20;1.20;;;;;;;18.80;72.07;100904.34;20754771;28;20061;-60
2023/07/03 11:48:17;;;;;;;;;;;;;;;19.41;66.59;100890.81;20778611;28;20703;-59
2023/07/03 11:58:38;;;;;;;8.70;1.55;;;;;;;20.04;67.84;100886.50;20769184;28;19936;-58
2023/07/03 12:09:19;;;;;;;5.72;1.55;;;;;;;20.18;62.52;100886.41;20775924;28;20060;-60
2023/07/03 12:19:40;;;;;;;7.43;1.50;;;;;;;19.59;67.08;100905.34;20765530;28;20046;-58
2023/07/03 12:30:03;;;;;;;7.90;1.65;;;;;;;19.36;67.60;100903.34;20762232;28;20079;-60
2023/07/03 12:40:26;;;;;;;9.55;1.90;;;;;;;19.50;64.42;100905.94;20760298;28;20073;-59
2023/07/03 12:50:57;;;;;;;6.13;1.50;;;;;;;19.33;63.78;100914.91;20761836;28;20045;-58
2023/07/03 13:01:20;;;;;;;7.75;1.60;;;;;;;19.17;66.77;100916.81;20768626;28;20049;-60
2023/07/03 13:11:44;;;;;;;4.15;1.40;;;;;;;19.42;61.12;100930.06;20775807;28;20048;-61
2023/07/03 13:22:14;;;;;;;4.13;1.05;;;;;;;19.53;61.25;100910.97;20773396;28;20050;-61
2023/07/03 13:32:51;;;;;;;4.05;1.10;;;;;;;19.58;55.18;100922.03;20763302;28;20061;-61
2023/07/03 13:43:21;;;;;;;7.18;1.33;;;;;;;19.52;56.42;100925.88;20789434;28;20488;-60
2023/07/03 13:53:43;;;;;;;4.83;1.10;;;;;;;19.55;57.72;100924.84;20770897;28;20053;-61
2023/07/03 14:04:06;;;;;;;4.32;1.20;;;;;;;19.65;57.31;100920.69;20763705;28;20091;-60
2023/07/03 14:14:27;;;;;;;6.65;0.95;;;;;;;19.60;59.63;100922.75;20743705;28;20045;-60
2023/07/03 14:24:50;;;;;;;7.60;1.42;;;;;;;19.38;59.26;100941.69;20759549;28;20049;-61
2023/07/03 14:35:11;;;;;;;4.43;1.15;;;;;;;19.02;60.63;100957.13;20753495;28;20045;-61
2023/07/03 14:45:33;;;;;;;3.85;1.10;;;;;;;18.70;61.28;100958.28;20751733;28;20073;-61
2023/07/03 14:55:56;;;;;;;4.75;1.20;;;;;;;18.73;63.17;100961.56;20751742;28;20526;-61
2023/07/03 15:06:18;;;;;;;6.97;1.00;;;;;;;18.66;59.82;100973.34;20755035;28;20151;-59
2023/07/03 15:16:39;;;;;;;6.43;1.30;;;;;;;18.47;61.71;100971.94;20747857;28;20038;-59
2023/07/03 15:27:02;;;;;;;3.58;1.13;;;;;;;18.48;64.11;100976.25;20776023;28;20491;-59
2023/07/03 15:37:23;;;;;;;6.93;1.30;;;;;;;18.31;64.91;100995.59;20773511;28;20041;-59
2023/07/03 15:47:45;;;;;;;7.97;1.77;;;;;;;18.12;65.78;101001.97;20746415;28;20084;-59
2023/07/03 15:58:06;;;;;;;7.35;1.65;;;;;;;18.01;66.23;101005.22;20774946;28;20045;-59
2023/07/03 16:08:30;;;;;;;6.28;1.50;;;;;;;18.00;65.79;101007.00;20792528;28;20473;-59
2023/07/03 16:18:55;;;;;;;9.43;1.60;;;;;;;18.01;66.27;101010.47;20764418;28;20637;-59
2023/07/03 16:29:16;;;;;;;4.65;1.25;;;;;;;17.62;66.60;101010.09;20793509;28;20057;-59
2023/07/03 16:39:38;;;;;;;7.30;1.30;;;;;;;17.47;66.57;100984.78;20765942;28;20049;-59
2023/07/03 16:49:59;;;;;;;5.55;1.20;;;;;;;17.56;66.65;100968.59;20768263;28;20049;-59
2023/07/03 17:00:21;;;;;;;3.42;1.15;;;;;;;17.60;66.80;100951.78;20766260;28;20455;-59
2023/07/03 17:10:43;;;;;;;8.15;1.45;;;;;;;17.60;66.30;100947.38;20783782;28;20144;-59
2023/07/03 17:21:05;;;;;;;6.95;1.58;;;;;;;17.58;66.31;100966.72;20763006;28;20070;-60
2023/07/03 17:31:28;;;;;;;6.55;1.50;;;;;;;17.94;66.70;100955.00;20762322;28;20046;-60
2023/07/03 17:41:49;;;;;;;4.10;1.30;;;;;;;17.94;67.23;100938.44;20751570;28;20045;-59
2023/07/03 17:52:11;;;;;;;7.50;1.60;;;;;;;17.84;67.40;100927.66;20785859;28;20048;-60
2023/07/03 18:02:33;;;;;;;6.88;1.25;;;;;;;17.73;67.94;100926.56;20783346;28;20045;-60
2023/07/03 18:12:55;;;;;;;10.48;1.88;;;;;;;17.68;68.07;100910.28;20784163;28;20073;-60
2023/07/03 18:23:16;;;;;;;5.80;1.50;;;;;;;17.63;69.88;100891.41;20742966;28;20053;-60
2023/07/03 18:33:38;;;;;;;7.50;1.80;;;;;;;17.61;70.04;100893.25;20766341;28;20042;-60
2023/07/03 18:44:00;;;;;;;4.45;1.50;;;;;;;17.65;70.13;100885.13;20756817;28;20053;-60
2023/07/03 18:54:23;;;;;;;8.65;1.80;;;;;;;17.69;69.54;100875.34;20750053;28;20483;-59
2023/07/03 19:04:45;;;;;;;6.30;1.35;;;;;;;17.68;69.46;100871.88;20752925;28;20073;-59
2023/07/03 19:15:08;;;;;;;7.88;1.80;;;;;;;17.73;69.14;100855.88;20749415;28;20045;-58
2023/07/03 19:25:29;;;;;;;7.38;1.58;;;;;;;17.69;69.45;100843.94;20754671;28;20053;-60
2023/07/03 19:35:53;;;;;;;6.60;1.70;;;;;;;17.73;69.13;100832.34;20740527;28;20081;-59
2023/07/03 19:46:14;;;;;;;9.13;2.00;;;;;;;17.67;69.32;100824.88;20751760;28;20056;-57
2023/07/03 19:56:36;;;;;;;11.35;1.92;;;;;;;17.73;68.00;100819.25;20768069;28;20065;-58
2023/07/03 20:06:58;;;;;;;12.98;2.05;;;;;;;17.67;68.39;100804.75;20764545;28;20049;-60
2023/07/03 20:17:21;;;;;;;9.23;1.83;;;;;;;17.64;68.08;100804.09;20770359;28;20038;-58
2023/07/03 20:27:42;;;;;;;10.68;2.35;;;;;;;17.60;67.66;100786.91;20771708;28;20029;-57
2023/07/03 20:38:04;;;;;;;10.32;2.63;;;;;;;17.59;67.51;100779.97;20763964;28;20544;-58
2023/07/03 20:48:25;;;;;;;5.57;1.90;;;;;;;17.64;66.63;100777.91;20758792;28;20042;-59
2023/07/03 20:58:51;;;;;;;8.35;2.40;;;;;;;17.56;67.42;100785.41;20765800;28;20052;-59
2023/07/03 21:09:14;;;;;;;7.03;2.40;;;;;;;17.04;72.22;100840.69;20765522;28;20128;-58
2023/07/03 21:19:36;;;;;;;7.57;2.35;;;;;;;16.49;76.22;100856.88;20761443;28;20049;-60
2023/07/03 21:29:58;;;;;;;7.43;2.58;;;;;;;16.01;80.88;100870.72;20755240;28;20045;-59
2023/07/03 21:40:19;;;;;;;;;;;;;;;15.73;87.11;100888.72;20765256;28;20041;-59
2023/07/03 21:50:41;;;;;;;7.18;2.72;;;;;;;15.59;84.60;100872.91;20780255;28;19929;-59
2023/07/03 22:01:04;;;;;;;12.05;3.25;;;;;;;15.47;86.46;100878.72;20767641;28;20046;-59
2023/07/03 22:11:27;;;;;;;14.68;3.17;;;;;;;15.42;87.56;100865.09;20753547;28;20076;-58
2023/07/03 22:21:50;;;;;;;10.13;3.05;;;;;;;15.32;88.17;100863.78;20753329;28;20136;-58
2023/07/03 22:32:12;;;;;;;10.27;2.97;;;;;;;15.24;89.05;100852.88;20748710;28;20128;-59
2023/07/03 22:42:34;;;;;;;10.98;3.20;;;;;;;15.22;93.45;100870.41;20769938;28;21501;-58
2023/07/03 22:52:55;;;;;;;9.65;2.22;;;;;;;15.07;87.84;100864.97;20751463;28;20049;-59
2023/07/03 23:03:17;;;;;;;5.72;2.10;;;;;;;14.89;89.25;100884.09;20761540;28;20050;-59
2023/07/03 23:13:38;;;;;;;;;;;;;;;14.67;93.65;100867.78;20746028;28;20057;-58
2023/07/03 23:24:00;;;;;;;3.22;1.27;;;;;;;14.35;89.75;100860.59;20766153;28;19925;-58
2023/07/03 23:34:22;;;;;;;;;;;;;;;14.20;95.17;100884.66;20758412;28;20713;-58
2023/07/03 23:44:45;;;;;;;4.72;1.20;;;;;;;14.15;92.06;100876.22;20774185;28;19921;-58
2023/07/03 23:55:08;;;;;;;5.97;1.80;;;;;;;14.20;92.10;100884.66;20771610;28;20042;-58
